Time;durP1;ratioP1;P1;durP2;ratioP2;P2;SDS_P1;SDS_P2;PMS_P1;PMS_P2;Temp;Humidity;BMP_temperature;BMP_pressure;BME280_temperature;BME280_humidity;BME280_pressure;Samples;Min_cycle;Max_cycle;Signal;HPM_P1;HPM_P2
2022/01/14 00:02:02;;;;;;;120.47;17.40;;;4.90;99.90;;;;;;7339835;19;111889;-79
2022/01/14 00:04:29;;;;;;;84.23;16.10;;;4.90;99.90;;;;;;7347009;19;112036;-79
2022/01/14 00:06:57;;;;;;;57.37;14.87;;;4.80;99.90;;;;;;7340922;19;112629;-80
2022/01/14 00:09:24;;;;;;;43.43;15.70;;;4.80;99.90;;;;;;7344622;19;111950;-79
2022/01/14 00:11:56;;;;;;;108.10;17.37;;;4.90;99.90;;;;;;7341047;19;113030;-79
2022/01/14 00:14:58;;;;;;;101.23;18.10;;;4.90;99.90;;;;;;7342992;19;115011;-79
2022/01/14 00:17:17;;;;;;;99.97;17.20;;;4.80;99.90;;;;;;7345191;19;115589;-79
2022/01/14 00:19:44;;;;;;;38.00;15.80;;;4.80;99.90;;;;;;7338268;19;112401;-79
2022/01/14 00:22:16;;;;;;;48.00;14.97;;;4.80;99.90;;;;;;7346611;19;112917;-79
2022/01/14 00:33:02;;;;;;;47.93;15.93;;;4.80;99.90;;;;;;7340009;19;113789;-79
2022/01/14 00:35:29;;;;;;;38.50;15.13;;;4.80;99.90;;;;;;7341806;19;112599;-79
2022/01/14 00:37:57;;;;;;;113.73;18.37;;;4.80;99.90;;;;;;7343677;19;112252;-79
2022/01/14 00:40:25;;;;;;;88.87;16.67;;;4.80;99.90;;;;;;7341512;19;112168;-79
2022/01/14 00:42:52;;;;;;;69.67;17.10;;;4.80;99.90;;;;;;7342437;19;112681;-79
2022/01/14 00:45:20;;;;;;;79.87;18.13;;;4.80;99.90;;;;;;7345975;19;110290;-79
2022/01/14 00:47:48;;;;;;;73.37;18.13;;;4.80;99.90;;;;;;7343453;19;112561;-79
2022/01/14 00:50:18;;;;;;;61.73;16.27;;;4.80;99.90;;;;;;7341237;19;112180;-79
2022/01/14 00:52:46;;;;;;;122.07;19.13;;;4.80;99.90;;;;;;7342004;19;110439;-79
2022/01/14 00:55:16;;;;;;;38.47;15.83;;;4.80;99.90;;;;;;7343651;19;112467;-79
2022/01/14 01:00:25;;;;;;;49.87;16.30;;;4.80;99.90;;;;;;7340904;19;111507;-79
2022/01/14 01:02:52;;;;;;;77.10;19.10;;;4.80;99.90;;;;;;7341338;19;112743;-79
2022/01/14 01:05:20;;;;;;;70.97;19.13;;;4.80;99.90;;;;;;7343867;19;112743;-79
2022/01/14 01:08:25;;;;;;;73.40;18.03;;;4.80;99.90;;;;;;7344708;19;111943;-79
2022/01/14 01:10:48;;;;;;;53.83;17.73;;;4.80;99.90;;;;;;7340527;19;113434;-79
2022/01/14 01:13:27;;;;;;;44.53;17.60;;;4.70;99.90;;;;;;7342685;19;114671;-79
2022/01/14 01:15:56;;;;;;;166.87;22.87;;;4.80;99.90;;;;;;7339323;19;112629;-80
2022/01/14 01:18:23;;;;;;;190.50;22.80;;;4.70;99.90;;;;;;7343074;19;111829;-79
2022/01/14 01:20:51;;;;;;;76.10;19.37;;;4.70;99.90;;;;;;7340130;19;112398;-79
2022/01/14 01:23:19;;;;;;;122.13;21.10;;;4.70;99.90;;;;;;7341541;19;112670;-79
2022/01/14 01:25:52;;;;;;;56.20;18.97;;;4.70;99.90;;;;;;7342484;19;112085;-79
2022/01/14 01:28:19;;;;;;;150.90;21.70;;;4.70;99.90;;;;;;7346879;19;116122;-79
2022/01/14 01:33:15;;;;;;;65.20;19.43;;;4.70;99.90;;;;;;7338712;19;110668;-79
2022/01/14 01:35:42;;;;;;;92.47;20.83;;;4.70;99.90;;;;;;7341931;19;112503;-78
2022/01/14 01:38:15;;;;;;;77.60;20.37;;;4.70;99.90;;;;;;7340490;19;112064;-79
2022/01/14 01:40:47;;;;;;;72.93;20.80;;;4.70;99.90;;;;;;7340327;19;112322;-78
2022/01/14 01:43:16;;;;;;;48.60;18.87;;;4.70;99.90;;;;;;7341617;19;112895;-79
2022/01/14 01:45:47;;;;;;;99.33;21.13;;;4.70;99.90;;;;;;7338150;19;110503;-78
2022/01/14 01:48:14;;;;;;;62.33;19.23;;;4.70;99.90;;;;;;7340042;19;112081;-78
2022/01/14 01:50:41;;;;;;;55.03;20.17;;;4.80;99.90;;;;;;7344449;19;112342;-80
2022/01/14 01:53:08;;;;;;;143.80;25.10;;;4.80;99.90;;;;;;7341626;19;112055;-79
2022/01/14 01:55:35;;;;;;;109.37;22.77;;;4.80;99.90;;;;;;7337988;19;112447;-79
2022/01/14 01:58:03;;;;;;;154.90;23.93;;;4.70;99.90;;;;;;7340778;19;112111;-78
2022/01/14 02:00:30;;;;;;;42.63;20.90;;;4.70;99.90;;;;;;7339678;19;112147;-78
2022/01/14 02:02:59;;;;;;;51.07;20.17;;;4.70;99.90;;;;;;7339999;19;112955;-79
2022/01/14 02:05:26;;;;;;;73.97;22.37;;;4.70;99.90;;;;;;7341090;19;112115;-79
2022/01/14 02:07:53;;;;;;;51.37;21.57;;;4.70;99.90;;;;;;7336826;19;112270;-79
2022/01/14 02:10:22;;;;;;;53.23;19.80;;;4.70;99.90;;;;;;7338017;19;113330;-79
2022/01/14 02:12:52;;;;;;;47.57;20.20;;;4.80;99.90;;;;;;7347243;19;111935;-79
2022/01/14 02:15:45;;;;;;;93.83;21.70;;;4.80;99.90;;;;;;7338798;19;113816;-79
2022/01/14 02:23:54;;;;;;;;;;;4.80;99.90;;;;;;7339867;19;111004;-79
2022/01/14 02:26:23;;;;;;;90.67;21.60;;;4.70;99.90;;;;;;7344595;19;111709;-78
2022/01/14 02:28:50;;;;;;;96.90;21.37;;;4.70;99.90;;;;;;7337691;19;110512;-79
2022/01/14 02:31:18;;;;;;;49.43;20.23;;;4.70;99.90;;;;;;7341874;19;112715;-79
2022/01/14 02:33:45;;;;;;;47.63;20.27;;;4.70;99.90;;;;;;7339061;19;112134;-78
2022/01/14 02:36:12;;;;;;;63.27;21.20;;;4.70;99.90;;;;;;7343633;19;111300;-78
2022/01/14 02:38:39;;;;;;;62.57;21.43;;;4.70;99.90;;;;;;7337386;19;112041;-79
2022/01/14 02:41:06;;;;;;;50.20;20.80;;;4.70;99.90;;;;;;7337156;19;112643;-79
2022/01/14 02:43:34;;;;;;;60.17;21.90;;;4.70;99.90;;;;;;7337565;19;112445;-79
2022/01/14 02:46:04;;;;;;;46.03;21.17;;;4.70;99.90;;;;;;7338878;19;115353;-80
2022/01/14 02:48:31;;;;;;;61.60;23.83;;;4.70;99.90;;;;;;7340956;19;112047;-79
2022/01/14 02:51:01;;;;;;;74.53;23.23;;;4.70;99.90;;;;;;7336984;19;112445;-78
2022/01/14 02:56:10;;;;;;;106.17;24.93;;;4.70;99.90;;;;;;7338267;19;112318;-79
2022/01/14 02:58:39;;;;;;;86.50;23.70;;;4.70;99.90;;;;;;7343860;19;112763;-79
2022/01/14 03:01:16;;;;;;;170.70;28.83;;;4.60;99.90;;;;;;7337134;19;112654;-79
2022/01/14 03:03:45;;;;;;;56.60;23.33;;;4.60;99.90;;;;;;7338966;19;113093;-79
2022/01/14 03:06:14;;;;;;;51.97;21.97;;;4.60;99.90;;;;;;7340843;19;111879;-79
2022/01/14 03:08:43;;;;;;;81.40;24.10;;;4.50;99.90;;;;;;7336604;19;111660;-79
2022/01/14 03:11:16;;;;;;;70.97;23.13;;;4.60;99.90;;;;;;7338342;19;112730;-79
2022/01/14 03:13:43;;;;;;;44.33;21.43;;;4.60;99.90;;;;;;7338760;19;112269;-78
2022/01/14 03:16:10;;;;;;;47.30;21.63;;;4.50;99.90;;;;;;7339227;19;112249;-79
2022/01/14 03:18:44;;;;;;;;;;;4.60;99.90;;;;;;7338604;19;112832;-78
2022/01/14 03:21:14;;;;;;;69.97;20.17;;;4.50;99.90;;;;;;7347056;19;112338;-79
2022/01/14 03:23:46;;;;;;;56.37;19.93;;;4.50;99.90;;;;;;7338081;19;114328;-79
2022/01/14 03:26:18;;;;;;;45.40;17.67;;;4.50;99.90;;;;;;7335443;19;112246;-79
2022/01/14 03:28:46;;;;;;;68.10;19.27;;;4.50;99.90;;;;;;7337664;19;112401;-79
2022/01/14 03:31:14;;;;;;;81.20;19.13;;;4.50;99.90;;;;;;7336433;19;112734;-79
2022/01/14 03:33:41;;;;;;;69.33;19.23;;;4.50;99.90;;;;;;7334881;19;111664;-79
2022/01/14 03:36:09;;;;;;;40.87;19.03;;;4.50;99.90;;;;;;7339347;19;114461;-78
2022/01/14 03:38:36;;;;;;;41.33;18.77;;;4.50;99.90;;;;;;7336035;19;113132;-79
2022/01/14 03:41:04;;;;;;;41.40;17.63;;;4.50;99.90;;;;;;7342757;19;112232;-79
2022/01/14 03:43:33;;;;;;;49.93;19.57;;;4.40;99.90;;;;;;7335466;19;112056;-79
2022/01/14 03:46:00;;;;;;;45.03;18.87;;;4.40;99.90;;;;;;7336361;19;112014;-79
2022/01/14 03:48:27;;;;;;;36.40;17.53;;;4.30;99.90;;;;;;7336809;19;111910;-79
2022/01/14 03:50:54;;;;;;;33.23;16.83;;;4.40;99.90;;;;;;7334778;19;112767;-79
2022/01/14 03:53:22;;;;;;;39.37;17.90;;;4.30;99.90;;;;;;7338345;19;112373;-79
2022/01/14 03:55:49;;;;;;;41.43;17.43;;;4.30;99.90;;;;;;7334456;19;112503;-79
2022/01/14 03:58:36;;;;;;;90.37;19.57;;;4.30;99.90;;;;;;7337942;19;113919;-79
2022/01/14 04:01:03;;;;;;;58.77;19.60;;;4.20;99.90;;;;;;7336299;19;115048;-79
2022/01/14 04:03:30;;;;;;;42.57;17.57;;;4.20;99.90;;;;;;7342130;19;112299;-79
2022/01/14 04:05:57;;;;;;;;;;;4.10;99.90;;;;;;7335380;19;112308;-79
2022/01/14 04:08:25;;;;;;;44.13;16.47;;;4.10;99.90;;;;;;7342681;19;112514;-79
2022/01/14 04:10:53;;;;;;;36.77;16.77;;;4.00;99.90;;;;;;7335574;19;111448;-79
2022/01/14 04:13:34;;;;;;;40.20;17.37;;;4.10;99.90;;;;;;7335305;19;113203;-79
2022/01/14 04:16:01;;;;;;;31.83;17.37;;;4.10;99.90;;;;;;7338920;19;112545;-79
2022/01/14 04:18:28;;;;;;;51.10;18.67;;;4.10;99.90;;;;;;7332384;19;113547;-79
2022/01/14 04:20:55;;;;;;;58.30;19.50;;;4.10;99.90;;;;;;7336638;19;111799;-79
2022/01/14 04:23:23;;;;;;;;;;;4.10;99.90;;;;;;7336265;19;114465;-79
2022/01/14 04:25:52;;;;;;;35.30;17.40;;;4.00;99.90;;;;;;7347182;19;110648;-79
2022/01/14 04:28:20;;;;;;;35.77;17.23;;;4.00;99.90;;;;;;7339362;19;110976;-79
2022/01/14 04:30:48;;;;;;;35.50;16.97;;;4.00;99.90;;;;;;7341562;19;113834;-79
2022/01/14 04:33:15;;;;;;;38.93;17.90;;;4.00;99.90;;;;;;7345081;19;111798;-79
2022/01/14 04:35:42;;;;;;;33.03;17.37;;;4.00;99.90;;;;;;7339880;19;115219;-79
2022/01/14 04:38:08;;;;;;;;;;;4.00;99.90;;;;;;7343440;19;112809;-80
2022/01/14 04:40:35;;;;;;;34.00;16.27;;;4.00;99.90;;;;;;7346581;19;111725;-80
2022/01/14 04:43:02;;;;;;;32.83;16.43;;;4.00;99.90;;;;;;7339559;19;113725;-79
2022/01/14 04:45:43;;;;;;;29.87;16.37;;;4.00;99.90;;;;;;7342949;19;114532;-79
2022/01/14 04:48:11;;;;;;;35.23;16.67;;;4.00;99.90;;;;;;7346506;19;111891;-79
2022/01/14 04:50:39;;;;;;;29.40;16.70;;;4.00;99.90;;;;;;7341425;19;112392;-78
2022/01/14 04:53:10;;;;;;;32.00;17.23;;;3.90;99.90;;;;;;7339578;19;112255;-79
2022/01/14 04:55:38;;;;;;;31.37;16.93;;;3.90;99.90;;;;;;7338941;19;113116;-79
2022/01/14 04:58:05;;;;;;;33.60;17.23;;;3.90;99.90;;;;;;7344673;19;116074;-79
2022/01/14 05:00:32;;;;;;;33.50;17.40;;;3.90;99.90;;;;;;7339608;19;111795;-79
2022/01/14 05:02:59;;;;;;;34.63;18.17;;;3.90;99.90;;;;;;7343439;19;115497;-79
2022/01/14 05:05:30;;;;;;;39.20;18.60;;;3.90;99.90;;;;;;7339490;19;113156;-79
2022/01/14 05:07:57;;;;;;;38.73;17.40;;;3.80;99.90;;;;;;7343466;19;112061;-79
2022/01/14 05:12:52;;;;;;;27.73;16.50;;;3.80;99.90;;;;;;7340663;19;112563;-79
2022/01/14 05:15:20;;;;;;;32.83;16.40;;;3.80;99.90;;;;;;7343009;19;112356;-78
2022/01/14 05:17:48;;;;;;;62.93;20.30;;;3.80;99.90;;;;;;7341220;19;112926;-79
2022/01/14 05:20:17;;;;;;;34.83;17.40;;;3.80;99.90;;;;;;7342961;19;111904;-78
2022/01/14 05:22:45;;;;;;;36.27;18.10;;;3.70;99.90;;;;;;7338577;19;111994;-78
2022/01/14 05:25:14;;;;;;;33.50;17.07;;;3.70;99.90;;;;;;7340991;19;112396;-79
2022/01/14 05:27:43;;;;;;;38.83;18.77;;;3.80;99.90;;;;;;7339904;19;111946;-80
2022/01/14 05:30:11;;;;;;;38.23;18.30;;;3.80;99.90;;;;;;7342880;19;112615;-79
2022/01/14 05:32:46;;;;;;;36.90;18.17;;;3.80;99.90;;;;;;7343331;19;115621;-79
2022/01/14 05:35:19;;;;;;;38.90;18.07;;;3.80;99.90;;;;;;7340626;19;110931;-79
2022/01/14 05:37:46;;;;;;;38.87;18.43;;;3.80;99.90;;;;;;7342885;19;113690;-79
2022/01/14 05:40:15;;;;;;;36.63;18.53;;;3.80;99.90;;;;;;7334129;19;112122;-79
2022/01/14 05:42:43;;;;;;;39.03;18.43;;;3.80;99.90;;;;;;7342285;19;112273;-79
2022/01/14 05:45:12;;;;;;;38.23;18.10;;;3.80;99.90;;;;;;7338476;19;115866;-79
2022/01/14 05:47:39;;;;;;;43.50;19.07;;;3.80;99.90;;;;;;7341437;19;110266;-79
2022/01/14 05:50:14;;;;;;;40.57;18.70;;;3.80;99.90;;;;;;7340308;19;113003;-80
2022/01/14 05:52:41;;;;;;;43.60;19.33;;;3.80;99.90;;;;;;7343033;19;112412;-79
2022/01/14 05:55:11;;;;;;;45.33;20.13;;;3.80;99.90;;;;;;7342837;19;110644;-79
2022/01/14 05:57:39;;;;;;;48.93;20.97;;;3.80;99.90;;;;;;7339348;19;112598;-79
2022/01/14 06:00:10;;;;;;;55.77;21.67;;;3.80;99.90;;;;;;7339908;19;111985;-79
2022/01/14 06:02:37;;;;;;;63.13;22.13;;;3.80;99.90;;;;;;7338045;19;112158;-79
2022/01/14 06:05:04;;;;;;;70.90;24.27;;;3.80;99.90;;;;;;7339303;19;112713;-79
2022/01/14 06:07:32;;;;;;;72.60;23.97;;;3.80;99.90;;;;;;7338067;19;112086;-79
2022/01/14 06:09:59;;;;;;;78.77;24.57;;;3.80;99.90;;;;;;7336094;19;112211;-79
2022/01/14 06:12:26;;;;;;;84.27;25.30;;;3.80;99.90;;;;;;7340229;19;112716;-79
2022/01/14 06:14:52;;;;;;;60.97;23.60;;;3.80;99.90;;;;;;7339291;19;112477;-79
2022/01/14 06:17:19;;;;;;;;;;;3.70;99.90;;;;;;7342911;19;113149;-79
2022/01/14 06:19:46;;;;;;;44.27;21.60;;;3.70;99.90;;;;;;7343941;19;111940;-79
2022/01/14 06:22:13;;;;;;;;;;;3.60;99.90;;;;;;7340129;19;109972;-79
2022/01/14 06:24:40;;;;;;;96.60;25.27;;;3.60;99.90;;;;;;7343162;19;111293;-79
2022/01/14 06:27:07;;;;;;;54.00;22.10;;;3.60;99.90;;;;;;7337885;19;112291;-79
2022/01/14 06:29:34;;;;;;;79.83;24.87;;;3.60;99.90;;;;;;7341524;19;114436;-79
2022/01/14 06:32:02;;;;;;;110.50;26.03;;;3.60;99.90;;;;;;7337720;19;113045;-79
2022/01/14 06:34:29;;;;;;;73.87;23.60;;;3.60;99.90;;;;;;7341467;19;113015;-79
2022/01/14 06:36:56;;;;;;;114.10;25.67;;;3.60;99.90;;;;;;7342011;19;111864;-79
2022/01/14 06:39:23;;;;;;;95.70;25.33;;;3.60;99.90;;;;;;7340585;19;113209;-79
2022/01/14 06:41:50;;;;;;;75.73;24.07;;;3.60;99.90;;;;;;7338552;19;111949;-79
2022/01/14 06:44:17;;;;;;;76.00;23.80;;;3.60;99.90;;;;;;7338783;19;113791;-79
2022/01/14 06:46:44;;;;;;;85.97;25.13;;;3.60;99.90;;;;;;7339142;19;113881;-79
2022/01/14 06:49:11;;;;;;;64.00;23.83;;;3.60;99.90;;;;;;7332766;19;112611;-79
2022/01/14 06:51:38;;;;;;;100.67;26.63;;;3.60;99.90;;;;;;7334777;19;111133;-79
2022/01/14 06:54:05;;;;;;;151.30;30.10;;;3.60;99.90;;;;;;7331833;19;112232;-79
2022/01/14 06:56:33;;;;;;;91.10;25.83;;;3.60;99.90;;;;;;7337264;19;112095;-80
2022/01/14 06:59:06;;;;;;;79.07;26.60;;;3.60;99.90;;;;;;7341596;19;112435;-79
2022/01/14 07:01:33;;;;;;;161.97;31.17;;;3.60;99.90;;;;;;7337974;19;111013;-79
2022/01/14 07:04:00;;;;;;;138.40;31.57;;;3.50;99.90;;;;;;7340892;19;114907;-79
2022/01/14 07:06:27;;;;;;;126.87;31.63;;;3.50;99.90;;;;;;7337664;19;110671;-79
2022/01/14 07:08:54;;;;;;;139.53;34.03;;;3.50;99.90;;;;;;7340673;19;112072;-79
2022/01/14 07:11:25;;;;;;;85.27;29.70;;;3.50;99.90;;;;;;7336724;19;112947;-79
2022/01/14 07:13:52;;;;;;;164.73;34.67;;;3.50;99.90;;;;;;7339515;19;111827;-79
2022/01/14 07:16:19;;;;;;;75.37;28.97;;;3.50;99.90;;;;;;7335164;19;112243;-79
2022/01/14 07:18:48;;;;;;;98.50;31.50;;;3.40;99.90;;;;;;7338516;19;115038;-79
2022/01/14 07:21:15;;;;;;;119.33;32.47;;;3.50;99.90;;;;;;7342557;19;113232;-79
2022/01/14 07:23:42;;;;;;;71.07;29.20;;;3.40;99.90;;;;;;7338277;19;112350;-78
2022/01/14 07:26:09;;;;;;;57.90;26.73;;;3.50;99.90;;;;;;7340600;19;112571;-79
2022/01/14 07:28:36;;;;;;;145.73;34.13;;;3.50;99.90;;;;;;7336145;19;112316;-79
2022/01/14 07:31:04;;;;;;;84.17;30.23;;;3.50;99.90;;;;;;7339635;19;115230;-79
2022/01/14 07:33:31;;;;;;;258.97;35.80;;;3.50;99.90;;;;;;7335213;19;112132;-79
2022/01/14 07:35:58;;;;;;;113.23;31.40;;;3.50;99.90;;;;;;7339147;19;112054;-79
2022/01/14 07:38:25;;;;;;;112.43;32.57;;;3.40;99.90;;;;;;7334690;19;112947;-80
2022/01/14 07:40:52;;;;;;;80.33;31.63;;;3.50;99.90;;;;;;7336047;19;112299;-79
2022/01/14 07:43:20;;;;;;;302.33;37.60;;;3.50;99.90;;;;;;7341220;19;110690;-79
2022/01/14 07:45:48;;;;;;;148.47;37.03;;;3.50;99.90;;;;;;7335942;19;112158;-78
2022/01/14 07:48:15;;;;;;;306.97;39.83;;;3.50;99.90;;;;;;7338924;19;111947;-79
2022/01/14 07:50:42;;;;;;;98.40;31.67;;;3.50;99.90;;;;;;7335643;19;112816;-79
2022/01/14 07:53:09;;;;;;;77.83;31.87;;;3.40;99.90;;;;;;7340069;19;112276;-79
2022/01/14 07:55:36;;;;;;;71.33;29.40;;;3.40;99.90;;;;;;7334285;19;112263;-80
2022/01/14 07:58:04;;;;;;;72.93;29.40;;;3.50;99.90;;;;;;7335444;19;112586;-79
2022/01/14 08:00:33;;;;;;;60.60;29.30;;;3.50;99.90;;;;;;7339670;19;112127;-79
2022/01/14 08:03:00;;;;;;;71.27;28.90;;;3.60;99.90;;;;;;7340376;19;111827;-79
2022/01/14 08:05:27;;;;;;;68.23;28.87;;;3.60;99.90;;;;;;7346956;19;111897;-79
2022/01/14 08:07:57;;;;;;;68.07;29.87;;;3.70;99.90;;;;;;7342146;19;112345;-79
2022/01/14 08:10:24;;;;;;;55.43;27.30;;;3.70;99.90;;;;;;7344672;19;111079;-79
2022/01/14 08:12:51;;;;;;;88.67;30.80;;;3.70;99.90;;;;;;7342877;19;110354;-79
2022/01/14 08:15:24;;;;;;;94.30;32.33;;;3.80;99.90;;;;;;7343841;19;112459;-79
2022/01/14 08:17:51;;;;;;;95.53;32.73;;;3.70;99.90;;;;;;7344583;19;112658;-78
2022/01/14 08:20:18;;;;;;;173.57;37.13;;;3.80;99.90;;;;;;7342137;19;113004;-79
2022/01/14 08:22:45;;;;;;;83.80;32.60;;;3.80;99.90;;;;;;7341312;19;112888;-76
2022/01/14 08:25:13;;;;;;;74.13;31.93;;;3.80;99.90;;;;;;7349025;19;113009;-79
2022/01/14 08:27:40;;;;;;;78.07;31.47;;;3.80;99.90;;;;;;7342561;19;112363;-79
2022/01/14 08:30:07;;;;;;;163.13;37.33;;;3.90;99.90;;;;;;7342906;19;113022;-79
2022/01/14 08:32:34;;;;;;;88.83;32.00;;;3.90;99.90;;;;;;7341055;19;110897;-78
2022/01/14 08:35:01;;;;;;;83.23;33.40;;;3.90;99.90;;;;;;7343742;19;110661;-79
2022/01/14 08:37:28;;;;;;;166.93;40.50;;;3.90;99.90;;;;;;7340982;19;113034;-78
2022/01/14 08:39:55;;;;;;;88.97;33.70;;;3.90;99.90;;;;;;7343959;19;112556;-79
2022/01/14 08:42:22;;;;;;;240.63;45.50;;;4.00;99.90;;;;;;7343462;19;112409;-78
2022/01/14 08:44:49;;;;;;;223.03;43.40;;;4.00;99.90;;;;;;7340363;19;112807;-78
2022/01/14 08:47:16;;;;;;;144.17;39.70;;;4.00;99.90;;;;;;7347660;19;110871;-79
2022/01/14 08:49:44;;;;;;;210.90;44.50;;;4.00;99.90;;;;;;7339423;19;112537;-78
2022/01/14 08:52:12;;;;;;;291.20;48.53;;;4.00;99.90;;;;;;7343673;19;113798;-78
2022/01/14 08:54:40;;;;;;;348.67;53.67;;;4.10;99.90;;;;;;7341472;19;112572;-78
2022/01/14 08:57:07;;;;;;;128.83;41.20;;;4.10;99.90;;;;;;7342863;19;115545;-79
2022/01/14 08:59:36;;;;;;;141.67;42.47;;;4.10;99.90;;;;;;7342692;19;112494;-79
2022/01/14 09:02:03;;;;;;;301.30;52.60;;;4.10;99.90;;;;;;7339352;19;112042;-79
2022/01/14 09:04:31;;;;;;;138.30;42.33;;;4.10;99.90;;;;;;7342201;19;113091;-78
2022/01/14 09:06:58;;;;;;;281.73;52.77;;;4.10;99.90;;;;;;7341011;19;112258;-79
2022/01/14 09:09:25;;;;;;;166.50;45.43;;;4.20;99.90;;;;;;7347626;19;111917;-78
2022/01/14 09:11:55;;;;;;;140.50;43.53;;;4.20;99.90;;;;;;7339888;19;112332;-78
2022/01/14 09:14:24;;;;;;;287.40;50.40;;;4.20;99.90;;;;;;7341148;19;115432;-78
2022/01/14 09:16:51;;;;;;;243.83;51.83;;;4.20;99.90;;;;;;7343506;19;112231;-77
2022/01/14 09:19:20;;;;;;;140.90;43.53;;;4.20;99.90;;;;;;7338151;19;112323;-78
2022/01/14 09:21:47;;;;;;;159.07;46.13;;;4.20;99.90;;;;;;7343264;19;112352;-79
2022/01/14 09:24:34;;;;;;;228.20;49.80;;;4.30;99.90;;;;;;7341485;19;113860;-78
2022/01/14 09:27:01;;;;;;;127.97;42.80;;;4.30;99.90;;;;;;7341860;19;113063;-78
2022/01/14 09:29:28;;;;;;;180.47;48.03;;;4.30;99.90;;;;;;7342705;19;112435;-78
2022/01/14 09:31:56;;;;;;;165.80;47.47;;;4.30;99.90;;;;;;7341606;19;112881;-78
2022/01/14 09:34:23;;;;;;;110.77;41.00;;;4.40;99.90;;;;;;7342243;19;111069;-79
2022/01/14 09:36:50;;;;;;;149.67;44.50;;;4.40;99.90;;;;;;7338105;19;113739;-78
2022/01/14 09:39:17;;;;;;;305.97;52.97;;;4.40;99.90;;;;;;7343439;19;111864;-79
2022/01/14 09:41:46;;;;;;;101.00;41.27;;;4.40;99.90;;;;;;7337872;19;111885;-79
2022/01/14 09:44:17;;;;;;;195.00;49.50;;;4.50;99.90;;;;;;7341375;19;112518;-78
2022/01/14 09:46:49;;;;;;;111.57;44.30;;;4.50;99.90;;;;;;7339453;19;112111;-78
2022/01/14 09:49:16;;;;;;;236.87;50.73;;;4.60;99.90;;;;;;7340823;19;112055;-78
2022/01/14 09:51:43;;;;;;;174.63;48.40;;;4.60;99.90;;;;;;7348083;19;115474;-79
2022/01/14 09:54:11;;;;;;;104.47;42.93;;;4.60;99.90;;;;;;7340723;19;113110;-78
2022/01/14 09:56:39;;;;;;;185.50;50.23;;;4.60;99.90;;;;;;7341889;19;112963;-79
2022/01/14 09:59:06;;;;;;;198.37;53.37;;;4.70;99.90;;;;;;7338888;19;111687;-78
2022/01/14 10:01:42;;;;;;;232.60;54.67;;;4.70;99.90;;;;;;7338804;19;112363;-81
2022/01/14 10:04:17;;;;;;;288.57;60.60;;;4.80;99.90;;;;;;7338276;19;112094;-81
2022/01/14 10:06:58;;;;;;;218.23;54.03;;;4.80;99.90;;;;;;7340619;19;112220;-81
2022/01/14 10:09:33;;;;;;;223.53;55.20;;;4.80;99.90;;;;;;7341554;19;112606;-81
2022/01/14 10:12:13;;;;;;;189.90;55.27;;;4.80;99.90;;;;;;7337951;19;113756;-81
2022/01/14 10:14:45;;;;;;;179.73;52.70;;;4.90;99.90;;;;;;7347261;19;112942;-81
2022/01/14 10:17:12;;;;;;;179.30;55.33;;;4.90;99.90;;;;;;7339330;19;111124;-81
2022/01/14 10:19:42;;;;;;;160.30;50.63;;;4.90;99.90;;;;;;7339923;19;110456;-81
2022/01/14 10:22:27;;;;;;;188.40;53.23;;;5.00;99.90;;;;;;7340925;19;111016;-81
2022/01/14 10:25:09;;;;;;;119.63;45.77;;;5.00;99.90;;;;;;7339276;19;112813;-81
2022/01/14 10:27:41;;;;;;;138.77;47.60;;;5.00;99.90;;;;;;7342095;19;112291;-79
2022/01/14 10:30:18;;;;;;;116.10;45.93;;;5.00;99.90;;;;;;7335776;19;112232;-79
2022/01/14 10:33:05;;;;;;;112.90;45.10;;;5.10;99.90;;;;;;7339757;19;112639;-78
2022/01/14 10:35:37;;;;;;;107.10;44.33;;;5.10;99.90;;;;;;7338527;19;111834;-81
2022/01/14 10:38:06;;;;;;;141.33;48.97;;;5.20;99.90;;;;;;7343282;19;112259;-79
2022/01/14 10:40:38;;;;;;;130.83;46.80;;;5.20;99.90;;;;;;7338827;19;111922;-79
2022/01/14 10:43:10;;;;;;;105.20;44.47;;;5.30;99.90;;;;;;7339355;19;112347;-79
2022/01/14 10:45:55;;;;;;;131.87;48.00;;;5.30;99.90;;;;;;7340708;19;113126;-79
2022/01/14 10:48:34;;;;;;;158.13;48.77;;;5.30;99.90;;;;;;7338111;19;114290;-79
2022/01/14 10:51:07;;;;;;;153.70;48.10;;;5.40;99.90;;;;;;7339123;19;112045;-79
2022/01/14 10:53:35;;;;;;;146.70;46.97;;;5.40;99.90;;;;;;7341079;19;112145;-79
2022/01/14 10:56:08;;;;;;;98.30;43.30;;;5.40;99.90;;;;;;7335994;19;112047;-79
2022/01/14 10:58:41;;;;;;;112.60;43.57;;;5.40;99.90;;;;;;7339918;19;110962;-79
2022/01/14 11:01:11;;;;;;;241.47;49.93;;;5.50;99.90;;;;;;7342324;19;114916;-78
2022/01/14 11:03:41;;;;;;;158.77;48.43;;;5.50;99.90;;;;;;7337636;19;112001;-79
2022/01/14 11:06:33;;;;;;;155.30;46.83;;;5.50;99.90;;;;;;7336939;19;112928;-79
2022/01/14 11:09:10;;;;;;;123.97;43.77;;;5.60;99.90;;;;;;7337176;19;112088;-79
2022/01/14 11:11:43;;;;;;;218.85;44.72;;;5.60;99.90;;;;;;7339700;19;112974;-79
2022/01/14 11:14:10;;;;;;;96.73;39.40;;;5.60;99.90;;;;;;7336745;19;113274;-79
2022/01/14 11:16:38;;;;;;;127.47;40.03;;;5.60;99.90;;;;;;7337482;19;110763;-79
2022/01/14 11:19:09;;;;;;;265.07;48.43;;;5.60;99.90;;;;;;7334565;19;112483;-79
2022/01/14 11:24:24;;;;;;;117.30;40.47;;;5.70;99.90;;;;;;7342665;19;111679;-79
2022/01/14 11:27:03;;;;;;;83.67;37.93;;;5.70;99.90;;;;;;7335460;19;112820;-79
2022/01/14 11:29:39;;;;;;;85.20;37.57;;;5.80;99.90;;;;;;7339334;19;112925;-79
2022/01/14 11:32:08;;;;;;;293.95;47.28;;;5.80;99.90;;;;;;7334841;19;113191;-79
2022/01/14 11:34:42;;;;;;;229.93;45.23;;;5.80;99.90;;;;;;7337707;19;112972;-79
2022/01/14 11:37:28;;;;;;;468.83;50.33;;;5.80;99.90;;;;;;7336001;19;112251;-79
2022/01/14 11:39:58;;;;;;;232.80;45.57;;;5.80;99.90;;;;;;7342230;19;112435;-79
2022/01/14 11:42:41;;;;;;;220.00;46.83;;;5.70;99.90;;;;;;7346143;19;112766;-79
2022/01/14 11:45:09;;;;;;;445.03;52.10;;;5.70;99.90;;;;;;7339007;19;114494;-79
2022/01/14 11:47:39;;;;;;;94.30;40.57;;;5.70;99.90;;;;;;7352087;19;112226;-79
2022/01/14 11:50:32;;;;;;;123.63;43.77;;;5.70;99.90;;;;;;7342956;19;110879;-80
2022/01/14 11:53:04;;;;;;;113.78;45.05;;;5.90;99.90;;;;;;7342108;19;112555;-79
2022/01/14 11:55:31;;;;;;;111.20;44.07;;;6.00;99.90;;;;;;7346036;19;112631;-79
2022/01/14 11:57:59;;;;;;;;;;;6.10;99.90;;;;;;7343162;19;111815;-79
2022/01/14 12:00:27;;;;;;;126.97;43.45;;;6.20;99.90;;;;;;7349377;19;112192;-79
2022/01/14 12:02:55;;;;;;;110.40;43.50;;;6.20;99.90;;;;;;7340802;19;112562;-79
2022/01/14 12:05:26;;;;;;;313.90;46.47;;;6.30;99.90;;;;;;7342443;19;112741;-79
2022/01/14 12:08:02;;;;;;;281.23;50.30;;;6.30;99.90;;;;;;7352120;19;112543;-80
2022/01/14 12:10:38;;;;;;;124.90;47.57;;;6.20;99.90;;;;;;7342735;19;112514;-79
2022/01/14 12:13:21;;;;;;;123.67;48.53;;;6.30;99.90;;;;;;7345336;19;113085;-79
2022/01/14 12:15:59;;;;;;;112.60;46.83;;;6.40;99.90;;;;;;7344597;19;111950;-79
2022/01/14 12:18:45;;;;;;;216.27;57.23;;;6.40;99.90;;;;;;7341181;19;110451;-79
2022/01/14 12:21:13;;;;;;;120.73;48.83;;;6.40;99.90;;;;;;7344877;19;112688;-79
2022/01/14 12:23:40;;;;;;;126.63;49.97;;;6.40;99.90;;;;;;7342944;19;112441;-79
2022/01/14 12:26:19;;;;;;;121.57;50.30;;;6.40;99.90;;;;;;7343958;19;112371;-80
2022/01/14 12:29:16;;;;;;;131.93;50.87;;;6.50;99.90;;;;;;7342450;19;112394;-79
2022/01/14 12:32:01;;;;;;;129.67;49.83;;;6.50;99.90;;;;;;7347958;19;112847;-79
2022/01/14 12:34:32;;;;;;;146.97;53.30;;;6.60;99.90;;;;;;7343703;19;114929;-80
2022/01/14 12:36:59;;;;;;;167.00;54.30;;;6.60;99.90;;;;;;7341317;19;112757;-79
2022/01/14 12:39:26;;;;;;;164.87;54.90;;;6.60;99.90;;;;;;7342506;19;112226;-80
2022/01/14 12:41:55;;;;;;;163.40;56.27;;;6.50;99.90;;;;;;7341037;19;112370;-80
2022/01/14 12:44:23;;;;;;;175.07;56.50;;;6.50;99.90;;;;;;7342881;19;113547;-79
2022/01/14 12:47:09;;;;;;;180.35;59.50;;;6.40;99.90;;;;;;7342094;19;112064;-80
2022/01/14 12:49:39;;;;;;;182.18;57.33;;;6.40;99.90;;;;;;7340024;19;112065;-80
2022/01/14 12:52:15;;;;;;;156.63;54.38;;;6.50;99.90;;;;;;7344600;19;112702;-79
2022/01/14 12:54:48;;;;;;;171.63;55.30;;;6.50;99.90;;;;;;7347644;19;112465;-79
2022/01/14 12:57:17;;;;;;;146.37;51.73;;;6.60;99.90;;;;;;7340384;19;116037;-79
2022/01/14 12:59:49;;;;;;;157.03;56.37;;;6.60;99.90;;;;;;7344944;19;110498;-79
2022/01/14 13:02:25;;;;;;;158.95;54.65;;;6.70;99.90;;;;;;7340710;19;111896;-80
2022/01/14 13:05:06;;;;;;;156.60;55.73;;;6.80;99.90;;;;;;7339193;19;113975;-79
2022/01/14 13:07:34;;;;;;;162.98;57.28;;;6.80;99.90;;;;;;7343644;19;115058;-80